sensor_id;sensor_type;location;lat;lon;timestamp;temperature;humidity
19180;DHT22;9722;48.754;8.868;2022-09-13T00:01:44;14.90;98.40
19180;DHT22;9722;48.754;8.868;2022-09-13T00:05:04;14.80;98.60
19180;DHT22;9722;48.754;8.868;2022-09-13T00:08:25;14.80;98.90
19180;DHT22;9722;48.754;8.868;2022-09-13T00:11:45;14.80;98.00
19180;DHT22;9722;48.754;8.868;2022-09-13T00:15:06;14.80;97.90
19180;DHT22;9722;48.754;8.868;2022-09-13T00:18:27;14.80;98.60
19180;DHT22;9722;48.754;8.868;2022-09-13T00:21:47;14.90;99.40
19180;DHT22;9722;48.754;8.868;2022-09-13T00:25:08;15.10;99.90
19180;DHT22;9722;48.754;8.868;2022-09-13T00:28:29;15.20;99.90
19180;DHT22;9722;48.754;8.868;2022-09-13T00:31:49;15.30;99.90
19180;DHT22;9722;48.754;8.868;2022-09-13T00:35:10;15.30;99.90
19180;DHT22;9722;48.754;8.868;2022-09-13T00:38:30;15.40;99.90
19180;DHT22;9722;48.754;8.868;2022-09-13T00:41:51;15.40;99.90
19180;DHT22;9722;48.754;8.868;2022-09-13T00:45:16;15.60;99.40
19180;DHT22;9722;48.754;8.868;2022-09-13T00:48:37;15.50;98.20
19180;DHT22;9722;48.754;8.868;2022-09-13T00:52:00;15.40;97.00
19180;DHT22;9722;48.754;8.868;2022-09-13T00:55:30;15.30;96.80
19180;DHT22;9722;48.754;8.868;2022-09-13T00:59:02;15.20;96.90
19180;DHT22;9722;48.754;8.868;2022-09-13T01:02:23;15.20;98.50
19180;DHT22;9722;48.754;8.868;2022-09-13T01:05:55;15.20;98.30
19180;DHT22;9722;48.754;8.868;2022-09-13T01:09:16;15.20;98.40
19180;DHT22;9722;48.754;8.868;2022-09-13T01:12:42;15.20;98.70
19180;DHT22;9722;48.754;8.868;2022-09-13T01:16:05;15.20;98.10
19180;DHT22;9722;48.754;8.868;2022-09-13T01:19:26;15.10;97.60
19180;DHT22;9722;48.754;8.868;2022-09-13T01:23:14;15.00;97.20
19180;DHT22;9722;48.754;8.868;2022-09-13T01:27:09;14.90;97.00
19180;DHT22;9722;48.754;8.868;2022-09-13T01:34:32;14.80;98.10
19180;DHT22;9722;48.754;8.868;2022-09-13T01:45:20;14.70;99.10
19180;DHT22;9722;48.754;8.868;2022-09-13T01:48:56;14.70;98.80
19180;DHT22;9722;48.754;8.868;2022-09-13T01:52:40;14.80;99.30
19180;DHT22;9722;48.754;8.868;2022-09-13T01:59:49;14.90;99.40
19180;DHT22;9722;48.754;8.868;2022-09-13T02:03:20;14.90;98.70
19180;DHT22;9722;48.754;8.868;2022-09-13T02:07:01;14.80;98.60
19180;DHT22;9722;48.754;8.868;2022-09-13T02:10:30;14.80;99.60
19180;DHT22;9722;48.754;8.868;2022-09-13T02:13:56;14.70;99.30
19180;DHT22;9722;48.754;8.868;2022-09-13T02:17:24;14.70;99.40
19180;DHT22;9722;48.754;8.868;2022-09-13T02:20:49;14.60;99.90
19180;DHT22;9722;48.754;8.868;2022-09-13T02:24:17;14.70;99.90
19180;DHT22;9722;48.754;8.868;2022-09-13T02:27:40;14.70;99.90
19180;DHT22;9722;48.754;8.868;2022-09-13T02:31:07;14.60;99.60
19180;DHT22;9722;48.754;8.868;2022-09-13T02:34:37;14.50;99.90
19180;DHT22;9722;48.754;8.868;2022-09-13T02:38:05;14.50;99.90
19180;DHT22;9722;48.754;8.868;2022-09-13T02:41:43;14.50;99.90
19180;DHT22;9722;48.754;8.868;2022-09-13T02:45:08;14.50;99.90
19180;DHT22;9722;48.754;8.868;2022-09-13T02:56:20;14.50;99.90
19180;DHT22;9722;48.754;8.868;2022-09-13T02:59:45;14.50;99.90
19180;DHT22;9722;48.754;8.868;2022-09-13T03:03:10;14.50;99.90
19180;DHT22;9722;48.754;8.868;2022-09-13T03:06:31;14.40;99.90
19180;DHT22;9722;48.754;8.868;2022-09-13T03:09:58;14.40;99.90
19180;DHT22;9722;48.754;8.868;2022-09-13T03:17:45;14.50;99.90
19180;DHT22;9722;48.754;8.868;2022-09-13T03:21:38;14.50;99.90
19180;DHT22;9722;48.754;8.868;2022-09-13T03:25:26;14.50;99.90
19180;DHT22;9722;48.754;8.868;2022-09-13T03:29:08;14.60;99.90
19180;DHT22;9722;48.754;8.868;2022-09-13T03:32:34;14.70;99.90
19180;DHT22;9722;48.754;8.868;2022-09-13T03:36:20;14.70;99.90
19180;DHT22;9722;48.754;8.868;2022-09-13T03:39:56;14.80;99.90
19180;DHT22;9722;48.754;8.868;2022-09-13T03:43:27;14.70;99.90
19180;DHT22;9722;48.754;8.868;2022-09-13T03:46:57;14.70;99.90
19180;DHT22;9722;48.754;8.868;2022-09-13T03:50:21;14.70;99.90
19180;DHT22;9722;48.754;8.868;2022-09-13T03:53:49;14.70;99.90
19180;DHT22;9722;48.754;8.868;2022-09-13T03:57:15;14.70;99.90
19180;DHT22;9722;48.754;8.868;2022-09-13T04:00:35;14.70;99.90
19180;DHT22;9722;48.754;8.868;2022-09-13T04:03:56;14.70;99.60
19180;DHT22;9722;48.754;8.868;2022-09-13T04:07:20;14.70;99.20
19180;DHT22;9722;48.754;8.868;2022-09-13T04:10:40;14.60;99.70
19180;DHT22;9722;48.754;8.868;2022-09-13T04:14:01;14.60;99.90
19180;DHT22;9722;48.754;8.868;2022-09-13T04:17:23;14.70;99.90
19180;DHT22;9722;48.754;8.868;2022-09-13T04:20:43;14.70;99.90
19180;DHT22;9722;48.754;8.868;2022-09-13T04:24:04;14.60;99.20
19180;DHT22;9722;48.754;8.868;2022-09-13T04:27:24;14.50;99.10
19180;DHT22;9722;48.754;8.868;2022-09-13T04:30:48;14.50;99.90
19180;DHT22;9722;48.754;8.868;2022-09-13T04:34:09;14.60;99.90
19180;DHT22;9722;48.754;8.868;2022-09-13T04:37:29;14.60;99.50
19180;DHT22;9722;48.754;8.868;2022-09-13T04:40:54;14.60;99.50
19180;DHT22;9722;48.754;8.868;2022-09-13T04:44:16;14.50;99.00
19180;DHT22;9722;48.754;8.868;2022-09-13T04:47:36;14.50;99.30
19180;DHT22;9722;48.754;8.868;2022-09-13T04:51:04;14.60;99.10
19180;DHT22;9722;48.754;8.868;2022-09-13T04:54:25;14.70;99.40
19180;DHT22;9722;48.754;8.868;2022-09-13T04:57:46;14.70;98.70
19180;DHT22;9722;48.754;8.868;2022-09-13T05:01:08;14.80;99.50
19180;DHT22;9722;48.754;8.868;2022-09-13T05:04:29;14.70;97.90
19180;DHT22;9722;48.754;8.868;2022-09-13T05:07:50;14.50;96.50
19180;DHT22;9722;48.754;8.868;2022-09-13T05:11:10;14.30;97.60
19180;DHT22;9722;48.754;8.868;2022-09-13T05:14:31;14.20;97.30
19180;DHT22;9722;48.754;8.868;2022-09-13T05:17:51;14.00;96.60
19180;DHT22;9722;48.754;8.868;2022-09-13T05:21:12;13.80;96.60
19180;DHT22;9722;48.754;8.868;2022-09-13T05:24:33;13.60;97.20
19180;DHT22;9722;48.754;8.868;2022-09-13T05:27:53;13.50;98.70
19180;DHT22;9722;48.754;8.868;2022-09-13T05:31:19;13.50;98.70
19180;DHT22;9722;48.754;8.868;2022-09-13T05:34:41;13.50;98.00
19180;DHT22;9722;48.754;8.868;2022-09-13T05:38:01;13.30;98.10
19180;DHT22;9722;48.754;8.868;2022-09-13T05:41:22;13.40;99.80
19180;DHT22;9722;48.754;8.868;2022-09-13T05:44:43;13.50;99.90
19180;DHT22;9722;48.754;8.868;2022-09-13T05:48:03;13.60;99.90
19180;DHT22;9722;48.754;8.868;2022-09-13T05:51:24;13.80;99.40
19180;DHT22;9722;48.754;8.868;2022-09-13T05:54:45;13.90;98.20
19180;DHT22;9722;48.754;8.868;2022-09-13T05:58:06;13.90;97.60
19180;DHT22;9722;48.754;8.868;2022-09-13T06:01:27;13.80;97.10
19180;DHT22;9722;48.754;8.868;2022-09-13T06:04:48;13.80;97.20
19180;DHT22;9722;48.754;8.868;2022-09-13T06:08:10;14.00;97.10
19180;DHT22;9722;48.754;8.868;2022-09-13T06:11:30;14.10;96.80
19180;DHT22;9722;48.754;8.868;2022-09-13T06:14:51;14.20;96.30
19180;DHT22;9722;48.754;8.868;2022-09-13T06:18:11;14.20;96.10
19180;DHT22;9722;48.754;8.868;2022-09-13T06:21:32;14.10;96.20
19180;DHT22;9722;48.754;8.868;2022-09-13T06:24:52;14.00;96.70
19180;DHT22;9722;48.754;8.868;2022-09-13T06:28:13;13.90;96.40
19180;DHT22;9722;48.754;8.868;2022-09-13T06:31:33;14.00;96.70
19180;DHT22;9722;48.754;8.868;2022-09-13T06:34:54;14.40;96.60
19180;DHT22;9722;48.754;8.868;2022-09-13T06:38:14;15.00;95.70
19180;DHT22;9722;48.754;8.868;2022-09-13T06:41:35;15.70;94.30
19180;DHT22;9722;48.754;8.868;2022-09-13T06:44:56;16.20;93.20
19180;DHT22;9722;48.754;8.868;2022-09-13T06:48:17;17.00;92.00
19180;DHT22;9722;48.754;8.868;2022-09-13T06:51:37;17.80;89.60
19180;DHT22;9722;48.754;8.868;2022-09-13T06:54:58;18.60;84.90
19180;DHT22;9722;48.754;8.868;2022-09-13T06:58:18;19.30;81.60
19180;DHT22;9722;48.754;8.868;2022-09-13T07:01:41;19.90;77.10
19180;DHT22;9722;48.754;8.868;2022-09-13T07:05:02;20.40;74.30
19180;DHT22;9722;48.754;8.868;2022-09-13T07:08:23;20.90;72.60
19180;DHT22;9722;48.754;8.868;2022-09-13T07:11:44;21.40;69.30
19180;DHT22;9722;48.754;8.868;2022-09-13T07:15:06;21.90;68.20
19180;DHT22;9722;48.754;8.868;2022-09-13T07:18:27;22.50;65.50
19180;DHT22;9722;48.754;8.868;2022-09-13T07:21:48;22.90;63.40
19180;DHT22;9722;48.754;8.868;2022-09-13T07:25:09;23.30;61.40
19180;DHT22;9722;48.754;8.868;2022-09-13T07:28:33;23.50;60.50
19180;DHT22;9722;48.754;8.868;2022-09-13T07:31:54;23.50;60.70
19180;DHT22;9722;48.754;8.868;2022-09-13T07:35:16;24.00;60.00
19180;DHT22;9722;48.754;8.868;2022-09-13T07:38:38;24.60;58.90
19180;DHT22;9722;48.754;8.868;2022-09-13T07:41:59;25.00;58.00
19180;DHT22;9722;48.754;8.868;2022-09-13T07:45:19;24.70;58.20
19180;DHT22;9722;48.754;8.868;2022-09-13T07:48:44;25.30;57.60
19180;DHT22;9722;48.754;8.868;2022-09-13T07:52:04;26.30;55.80
19180;DHT22;9722;48.754;8.868;2022-09-13T07:55:25;27.10;55.50
19180;DHT22;9722;48.754;8.868;2022-09-13T07:58:48;27.60;53.50
19180;DHT22;9722;48.754;8.868;2022-09-13T08:02:08;27.40;53.10
19180;DHT22;9722;48.754;8.868;2022-09-13T08:05:29;27.20;53.30
19180;DHT22;9722;48.754;8.868;2022-09-13T08:08:50;27.20;53.50
19180;DHT22;9722;48.754;8.868;2022-09-13T08:12:10;27.60;52.80
19180;DHT22;9722;48.754;8.868;2022-09-13T08:15:31;27.70;52.80
19180;DHT22;9722;48.754;8.868;2022-09-13T08:18:54;27.90;53.30
19180;DHT22;9722;48.754;8.868;2022-09-13T08:22:15;28.30;53.40
19180;DHT22;9722;48.754;8.868;2022-09-13T08:25:36;29.10;52.30
19180;DHT22;9722;48.754;8.868;2022-09-13T08:29:00;30.00;51.20
19180;DHT22;9722;48.754;8.868;2022-09-13T08:32:21;30.90;48.80
19180;DHT22;9722;48.754;8.868;2022-09-13T08:35:49;31.40;48.60
19180;DHT22;9722;48.754;8.868;2022-09-13T08:39:11;32.30;47.00
19180;DHT22;9722;48.754;8.868;2022-09-13T08:46:28;32.90;43.20
19180;DHT22;9722;48.754;8.868;2022-09-13T08:50:04;32.40;44.00
19180;DHT22;9722;48.754;8.868;2022-09-13T08:53:29;32.40;44.10
19180;DHT22;9722;48.754;8.868;2022-09-13T08:56:57;33.00;43.50
19180;DHT22;9722;48.754;8.868;2022-09-13T09:00:29;33.60;41.30
19180;DHT22;9722;48.754;8.868;2022-09-13T09:07:24;34.60;37.90
19180;DHT22;9722;48.754;8.868;2022-09-13T09:10:47;35.10;37.40
19180;DHT22;9722;48.754;8.868;2022-09-13T09:14:29;35.70;37.40
19180;DHT22;9722;48.754;8.868;2022-09-13T09:21:18;36.90;34.80
19180;DHT22;9722;48.754;8.868;2022-09-13T09:24:39;37.40;33.60
19180;DHT22;9722;48.754;8.868;2022-09-13T09:28:00;37.20;33.40
19180;DHT22;9722;48.754;8.868;2022-09-13T09:38:58;35.40;32.70
19180;DHT22;9722;48.754;8.868;2022-09-13T09:42:25;35.00;33.90
19180;DHT22;9722;48.754;8.868;2022-09-13T09:45:48;35.00;36.10
19180;DHT22;9722;48.754;8.868;2022-09-13T09:49:31;35.50;36.40
19180;DHT22;9722;48.754;8.868;2022-09-13T09:53:24;36.60;36.30
19180;DHT22;9722;48.754;8.868;2022-09-13T09:56:53;37.70;35.00
19180;DHT22;9722;48.754;8.868;2022-09-13T10:00:14;38.60;32.90
19180;DHT22;9722;48.754;8.868;2022-09-13T10:03:35;39.00;33.20
19180;DHT22;9722;48.754;8.868;2022-09-13T10:10:53;38.80;34.00
19180;DHT22;9722;48.754;8.868;2022-09-13T10:18:15;40.70;31.90
19180;DHT22;9722;48.754;8.868;2022-09-13T10:21:35;41.40;31.30
19180;DHT22;9722;48.754;8.868;2022-09-13T10:25:25;42.30;30.50
19180;DHT22;9722;48.754;8.868;2022-09-13T10:28:57;43.20;28.00
19180;DHT22;9722;48.754;8.868;2022-09-13T10:32:19;43.40;26.30
19180;DHT22;9722;48.754;8.868;2022-09-13T10:35:40;43.40;27.60
19180;DHT22;9722;48.754;8.868;2022-09-13T10:39:12;44.10;28.30
19180;DHT22;9722;48.754;8.868;2022-09-13T10:42:37;45.10;27.50
19180;DHT22;9722;48.754;8.868;2022-09-13T10:45:58;46.00;27.10
19180;DHT22;9722;48.754;8.868;2022-09-13T10:49:52;46.80;26.40
19180;DHT22;9722;48.754;8.868;2022-09-13T10:54:05;46.70;26.30
19180;DHT22;9722;48.754;8.868;2022-09-13T11:01:27;45.50;26.30
19180;DHT22;9722;48.754;8.868;2022-09-13T11:11:55;45.70;26.30
19180;DHT22;9722;48.754;8.868;2022-09-13T11:15:46;45.20;26.30
19180;DHT22;9722;48.754;8.868;2022-09-13T11:19:35;44.50;26.60
19180;DHT22;9722;48.754;8.868;2022-09-13T11:34:52;40.50;29.80
19180;DHT22;9722;48.754;8.868;2022-09-13T11:38:27;40.30;28.40
19180;DHT22;9722;48.754;8.868;2022-09-13T11:42:01;39.70;29.10
19180;DHT22;9722;48.754;8.868;2022-09-13T11:45:26;38.90;30.00
19180;DHT22;9722;48.754;8.868;2022-09-13T11:52:56;37.40;32.10
19180;DHT22;9722;48.754;8.868;2022-09-13T11:56:32;36.60;33.40
19180;DHT22;9722;48.754;8.868;2022-09-13T12:00:02;35.90;33.70
19180;DHT22;9722;48.754;8.868;2022-09-13T12:03:54;35.30;34.30
19180;DHT22;9722;48.754;8.868;2022-09-13T12:08:05;34.90;34.70
19180;DHT22;9722;48.754;8.868;2022-09-13T12:11:12;34.90;34.70
19180;DHT22;9722;48.754;8.868;2022-09-13T12:14:45;35.40;33.90
19180;DHT22;9722;48.754;8.868;2022-09-13T12:18:15;35.70;33.90
19180;DHT22;9722;48.754;8.868;2022-09-13T12:21:40;35.90;33.80
19180;DHT22;9722;48.754;8.868;2022-09-13T12:25:18;36.10;33.60
19180;DHT22;9722;48.754;8.868;2022-09-13T12:28:48;36.40;33.50
19180;DHT22;9722;48.754;8.868;2022-09-13T12:32:11;37.30;33.10
19180;DHT22;9722;48.754;8.868;2022-09-13T12:35:39;38.50;32.60
19180;DHT22;9722;48.754;8.868;2022-09-13T12:39:18;39.60;31.40
19180;DHT22;9722;48.754;8.868;2022-09-13T12:46:25;39.70;29.20
19180;DHT22;9722;48.754;8.868;2022-09-13T12:50:21;39.10;29.00
19180;DHT22;9722;48.754;8.868;2022-09-13T12:53:58;39.20;28.20
19180;DHT22;9722;48.754;8.868;2022-09-13T12:57:40;39.40;29.40
19180;DHT22;9722;48.754;8.868;2022-09-13T13:01:12;39.80;29.90
19180;DHT22;9722;48.754;8.868;2022-09-13T13:04:35;39.80;29.80
19180;DHT22;9722;48.754;8.868;2022-09-13T13:07:59;40.20;29.20
19180;DHT22;9722;48.754;8.868;2022-09-13T13:11:25;40.40;28.90
19180;DHT22;9722;48.754;8.868;2022-09-13T13:14:47;40.40;29.30
19180;DHT22;9722;48.754;8.868;2022-09-13T13:18:27;40.20;29.30
19180;DHT22;9722;48.754;8.868;2022-09-13T13:21:49;39.90;29.40
19180;DHT22;9722;48.754;8.868;2022-09-13T13:25:34;39.70;28.60
19180;DHT22;9722;48.754;8.868;2022-09-13T13:29:10;39.30;29.70
19180;DHT22;9722;48.754;8.868;2022-09-13T13:32:32;38.80;29.00
19180;DHT22;9722;48.754;8.868;2022-09-13T13:35:53;38.00;29.20
19180;DHT22;9722;48.754;8.868;2022-09-13T13:42:46;36.70;32.20
19180;DHT22;9722;48.754;8.868;2022-09-13T13:52:56;36.90;30.90
19180;DHT22;9722;48.754;8.868;2022-09-13T13:56:33;37.80;29.50
19180;DHT22;9722;48.754;8.868;2022-09-13T14:00:13;38.60;30.10
19180;DHT22;9722;48.754;8.868;2022-09-13T14:03:57;39.30;28.80
19180;DHT22;9722;48.754;8.868;2022-09-13T14:15:42;39.50;27.80
19180;DHT22;9722;48.754;8.868;2022-09-13T14:22:39;37.60;28.60
19180;DHT22;9722;48.754;8.868;2022-09-13T14:25:59;36.70;29.80
19180;DHT22;9722;48.754;8.868;2022-09-13T14:29:22;36.00;29.40
19180;DHT22;9722;48.754;8.868;2022-09-13T14:32:49;35.30;29.60
19180;DHT22;9722;48.754;8.868;2022-09-13T14:36:19;34.40;30.10
19180;DHT22;9722;48.754;8.868;2022-09-13T14:40:05;33.50;31.20
19180;DHT22;9722;48.754;8.868;2022-09-13T14:43:29;32.80;32.00
19180;DHT22;9722;48.754;8.868;2022-09-13T14:46:58;32.20;32.10
19180;DHT22;9722;48.754;8.868;2022-09-13T14:50:27;31.70;33.00
19180;DHT22;9722;48.754;8.868;2022-09-13T14:53:56;31.40;33.80
19180;DHT22;9722;48.754;8.868;2022-09-13T14:57:34;31.20;34.20
19180;DHT22;9722;48.754;8.868;2022-09-13T15:00:57;31.10;34.70
19180;DHT22;9722;48.754;8.868;2022-09-13T15:04:19;31.10;36.20
19180;DHT22;9722;48.754;8.868;2022-09-13T15:07:42;31.10;37.10
19180;DHT22;9722;48.754;8.868;2022-09-13T15:11:05;31.00;38.40
19180;DHT22;9722;48.754;8.868;2022-09-13T15:14:28;30.90;38.60
19180;DHT22;9722;48.754;8.868;2022-09-13T15:21:18;30.80;37.90
19180;DHT22;9722;48.754;8.868;2022-09-13T15:24:43;30.60;38.20
19180;DHT22;9722;48.754;8.868;2022-09-13T15:28:21;30.40;38.00
19180;DHT22;9722;48.754;8.868;2022-09-13T15:31:42;30.30;38.40
19180;DHT22;9722;48.754;8.868;2022-09-13T15:35:22;30.00;39.70
19180;DHT22;9722;48.754;8.868;2022-09-13T15:39:00;29.80;41.50
19180;DHT22;9722;48.754;8.868;2022-09-13T15:42:20;29.60;42.10
19180;DHT22;9722;48.754;8.868;2022-09-13T15:45:41;29.40;42.70
19180;DHT22;9722;48.754;8.868;2022-09-13T15:49:03;29.20;43.60
19180;DHT22;9722;48.754;8.868;2022-09-13T15:52:25;28.90;43.80
19180;DHT22;9722;48.754;8.868;2022-09-13T15:55:45;28.60;44.00
19180;DHT22;9722;48.754;8.868;2022-09-13T15:59:06;28.50;44.60
19180;DHT22;9722;48.754;8.868;2022-09-13T16:02:30;28.20;45.10
19180;DHT22;9722;48.754;8.868;2022-09-13T16:05:51;28.00;45.60
19180;DHT22;9722;48.754;8.868;2022-09-13T16:09:22;27.80;46.00
19180;DHT22;9722;48.754;8.868;2022-09-13T16:12:43;27.60;46.50
19180;DHT22;9722;48.754;8.868;2022-09-13T16:16:03;27.40;46.30
19180;DHT22;9722;48.754;8.868;2022-09-13T16:19:24;27.30;46.90
19180;DHT22;9722;48.754;8.868;2022-09-13T16:22:45;27.20;47.50
19180;DHT22;9722;48.754;8.868;2022-09-13T16:26:05;27.00;47.40
19180;DHT22;9722;48.754;8.868;2022-09-13T16:29:26;26.90;46.90
19180;DHT22;9722;48.754;8.868;2022-09-13T16:32:47;26.80;47.20
19180;DHT22;9722;48.754;8.868;2022-09-13T16:36:11;26.70;47.40
19180;DHT22;9722;48.754;8.868;2022-09-13T16:39:32;26.60;47.90
19180;DHT22;9722;48.754;8.868;2022-09-13T16:42:53;26.50;46.60
19180;DHT22;9722;48.754;8.868;2022-09-13T16:46:13;26.40;46.60
19180;DHT22;9722;48.754;8.868;2022-09-13T16:49:34;26.30;47.10
19180;DHT22;9722;48.754;8.868;2022-09-13T16:52:55;26.20;47.30
19180;DHT22;9722;48.754;8.868;2022-09-13T16:56:17;26.10;48.10
19180;DHT22;9722;48.754;8.868;2022-09-13T16:59:38;26.00;48.70
19180;DHT22;9722;48.754;8.868;2022-09-13T17:03:00;25.90;50.00
19180;DHT22;9722;48.754;8.868;2022-09-13T17:06:22;25.80;50.60
19180;DHT22;9722;48.754;8.868;2022-09-13T17:09:43;25.70;51.60
19180;DHT22;9722;48.754;8.868;2022-09-13T17:13:04;25.60;51.90
19180;DHT22;9722;48.754;8.868;2022-09-13T17:19:47;25.40;51.10
19180;DHT22;9722;48.754;8.868;2022-09-13T17:23:08;25.30;49.60
19180;DHT22;9722;48.754;8.868;2022-09-13T17:26:30;25.20;51.80
19180;DHT22;9722;48.754;8.868;2022-09-13T17:29:50;25.10;52.20
19180;DHT22;9722;48.754;8.868;2022-09-13T17:33:11;24.90;53.20
19180;DHT22;9722;48.754;8.868;2022-09-13T17:36:31;24.80;54.90
19180;DHT22;9722;48.754;8.868;2022-09-13T17:39:52;24.70;55.80
19180;DHT22;9722;48.754;8.868;2022-09-13T17:43:12;24.60;56.10
19180;DHT22;9722;48.754;8.868;2022-09-13T17:46:33;24.40;55.70
19180;DHT22;9722;48.754;8.868;2022-09-13T17:49:53;24.20;55.80
19180;DHT22;9722;48.754;8.868;2022-09-13T17:53:15;24.10;56.50
19180;DHT22;9722;48.754;8.868;2022-09-13T17:56:41;23.80;56.80
19180;DHT22;9722;48.754;8.868;2022-09-13T18:00:04;23.60;57.50
19180;DHT22;9722;48.754;8.868;2022-09-13T18:03:27;23.40;58.00
19180;DHT22;9722;48.754;8.868;2022-09-13T18:06:49;23.30;58.80
19180;DHT22;9722;48.754;8.868;2022-09-13T18:10:10;23.10;59.80
19180;DHT22;9722;48.754;8.868;2022-09-13T18:13:31;23.00;60.50
19180;DHT22;9722;48.754;8.868;2022-09-13T18:16:52;22.80;60.50
19180;DHT22;9722;48.754;8.868;2022-09-13T18:20:15;22.70;61.00
19180;DHT22;9722;48.754;8.868;2022-09-13T18:23:35;22.60;61.00
19180;DHT22;9722;48.754;8.868;2022-09-13T18:26:56;22.50;60.90
19180;DHT22;9722;48.754;8.868;2022-09-13T18:30:16;22.50;61.00
19180;DHT22;9722;48.754;8.868;2022-09-13T18:33:37;22.40;62.50
19180;DHT22;9722;48.754;8.868;2022-09-13T18:36:57;22.40;62.80
19180;DHT22;9722;48.754;8.868;2022-09-13T18:40:18;22.30;62.80
19180;DHT22;9722;48.754;8.868;2022-09-13T18:43:40;22.20;62.50
19180;DHT22;9722;48.754;8.868;2022-09-13T18:47:00;22.10;62.60
19180;DHT22;9722;48.754;8.868;2022-09-13T18:50:23;22.00;62.90
19180;DHT22;9722;48.754;8.868;2022-09-13T18:53:44;21.90;63.50
19180;DHT22;9722;48.754;8.868;2022-09-13T18:57:05;21.80;64.40
19180;DHT22;9722;48.754;8.868;2022-09-13T19:00:25;21.80;65.90
19180;DHT22;9722;48.754;8.868;2022-09-13T19:03:56;21.80;66.50
19180;DHT22;9722;48.754;8.868;2022-09-13T19:07:17;21.70;65.90
19180;DHT22;9722;48.754;8.868;2022-09-13T19:10:37;21.70;65.70
19180;DHT22;9722;48.754;8.868;2022-09-13T19:13:58;21.70;65.50
19180;DHT22;9722;48.754;8.868;2022-09-13T19:17:18;21.70;67.50
19180;DHT22;9722;48.754;8.868;2022-09-13T19:20:39;21.80;68.50
19180;DHT22;9722;48.754;8.868;2022-09-13T19:24:00;21.80;68.50
19180;DHT22;9722;48.754;8.868;2022-09-13T19:27:21;21.90;69.10
19180;DHT22;9722;48.754;8.868;2022-09-13T19:30:42;21.90;69.70
19180;DHT22;9722;48.754;8.868;2022-09-13T19:34:02;21.90;69.90
19180;DHT22;9722;48.754;8.868;2022-09-13T19:37:25;21.90;68.90
19180;DHT22;9722;48.754;8.868;2022-09-13T19:40:56;21.90;68.20
19180;DHT22;9722;48.754;8.868;2022-09-13T19:44:17;21.90;68.70
19180;DHT22;9722;48.754;8.868;2022-09-13T19:47:39;22.00;67.90
19180;DHT22;9722;48.754;8.868;2022-09-13T19:51:03;21.90;68.30
19180;DHT22;9722;48.754;8.868;2022-09-13T19:54:24;21.70;68.00
19180;DHT22;9722;48.754;8.868;2022-09-13T19:57:46;21.60;70.00
19180;DHT22;9722;48.754;8.868;2022-09-13T20:01:10;21.50;71.00
19180;DHT22;9722;48.754;8.868;2022-09-13T20:04:30;21.60;70.50
19180;DHT22;9722;48.754;8.868;2022-09-13T20:07:51;21.50;70.10
19180;DHT22;9722;48.754;8.868;2022-09-13T20:11:13;21.50;71.30
19180;DHT22;9722;48.754;8.868;2022-09-13T20:14:36;21.50;70.60
19180;DHT22;9722;48.754;8.868;2022-09-13T20:17:58;21.40;70.40
19180;DHT22;9722;48.754;8.868;2022-09-13T20:21:19;21.30;70.90
19180;DHT22;9722;48.754;8.868;2022-09-13T20:24:39;21.10;71.50
19180;DHT22;9722;48.754;8.868;2022-09-13T20:28:00;21.00;71.60
19180;DHT22;9722;48.754;8.868;2022-09-13T20:31:21;20.90;71.40
19180;DHT22;9722;48.754;8.868;2022-09-13T20:34:42;20.70;72.30
19180;DHT22;9722;48.754;8.868;2022-09-13T20:38:03;20.70;72.10
19180;DHT22;9722;48.754;8.868;2022-09-13T20:41:25;20.60;72.60
19180;DHT22;9722;48.754;8.868;2022-09-13T20:44:46;20.40;72.80
19180;DHT22;9722;48.754;8.868;2022-09-13T20:48:06;20.40;73.60
19180;DHT22;9722;48.754;8.868;2022-09-13T20:51:27;20.40;74.60
19180;DHT22;9722;48.754;8.868;2022-09-13T20:54:47;20.50;75.70
19180;DHT22;9722;48.754;8.868;2022-09-13T20:58:08;20.60;76.40
19180;DHT22;9722;48.754;8.868;2022-09-13T21:01:30;20.80;76.40
19180;DHT22;9722;48.754;8.868;2022-09-13T21:04:50;20.80;73.90
19180;DHT22;9722;48.754;8.868;2022-09-13T21:08:15;20.80;74.90
19180;DHT22;9722;48.754;8.868;2022-09-13T21:11:55;20.90;76.20
19180;DHT22;9722;48.754;8.868;2022-09-13T21:15:15;20.90;76.20
19180;DHT22;9722;48.754;8.868;2022-09-13T21:18:36;20.90;76.50
19180;DHT22;9722;48.754;8.868;2022-09-13T21:21:57;21.00;76.40
19180;DHT22;9722;48.754;8.868;2022-09-13T21:25:18;20.90;75.40
19180;DHT22;9722;48.754;8.868;2022-09-13T21:28:39;20.90;74.70
19180;DHT22;9722;48.754;8.868;2022-09-13T21:32:02;20.70;75.20
19180;DHT22;9722;48.754;8.868;2022-09-13T21:35:22;20.50;73.90
19180;DHT22;9722;48.754;8.868;2022-09-13T21:38:43;20.40;73.60
19180;DHT22;9722;48.754;8.868;2022-09-13T21:42:03;20.30;75.10
19180;DHT22;9722;48.754;8.868;2022-09-13T21:45:24;20.10;76.10
19180;DHT22;9722;48.754;8.868;2022-09-13T21:48:46;19.90;78.00
19180;DHT22;9722;48.754;8.868;2022-09-13T21:52:07;19.80;79.40
19180;DHT22;9722;48.754;8.868;2022-09-13T21:55:28;19.70;79.50
19180;DHT22;9722;48.754;8.868;2022-09-13T21:58:52;19.70;79.60
19180;DHT22;9722;48.754;8.868;2022-09-13T22:02:12;19.70;80.20
19180;DHT22;9722;48.754;8.868;2022-09-13T22:05:33;19.60;79.70
19180;DHT22;9722;48.754;8.868;2022-09-13T22:08:56;19.60;80.20
19180;DHT22;9722;48.754;8.868;2022-09-13T22:12:16;19.50;80.60
19180;DHT22;9722;48.754;8.868;2022-09-13T22:15:37;19.50;81.00
19180;DHT22;9722;48.754;8.868;2022-09-13T22:19:13;19.50;81.30
19180;DHT22;9722;48.754;8.868;2022-09-13T22:22:34;19.50;82.30
19180;DHT22;9722;48.754;8.868;2022-09-13T22:25:54;19.60;82.80
19180;DHT22;9722;48.754;8.868;2022-09-13T22:29:15;19.60;83.00
19180;DHT22;9722;48.754;8.868;2022-09-13T22:32:36;19.60;82.80
19180;DHT22;9722;48.754;8.868;2022-09-13T22:35:58;19.60;83.60
19180;DHT22;9722;48.754;8.868;2022-09-13T22:39:19;19.60;83.80
19180;DHT22;9722;48.754;8.868;2022-09-13T22:42:39;19.50;83.80
19180;DHT22;9722;48.754;8.868;2022-09-13T22:46:06;19.50;84.70
19180;DHT22;9722;48.754;8.868;2022-09-13T22:49:27;19.40;85.30
19180;DHT22;9722;48.754;8.868;2022-09-13T22:52:47;19.30;86.40
19180;DHT22;9722;48.754;8.868;2022-09-13T22:56:12;19.20;87.10
19180;DHT22;9722;48.754;8.868;2022-09-13T22:59:33;19.10;87.00
19180;DHT22;9722;48.754;8.868;2022-09-13T23:02:53;19.10;86.80
19180;DHT22;9722;48.754;8.868;2022-09-13T23:06:16;19.10;87.50
19180;DHT22;9722;48.754;8.868;2022-09-13T23:09:40;19.00;88.00
19180;DHT22;9722;48.754;8.868;2022-09-13T23:13:01;19.00;88.20
19180;DHT22;9722;48.754;8.868;2022-09-13T23:16:27;19.00;87.30
19180;DHT22;9722;48.754;8.868;2022-09-13T23:19:48;19.00;87.70
19180;DHT22;9722;48.754;8.868;2022-09-13T23:23:09;19.00;88.60
19180;DHT22;9722;48.754;8.868;2022-09-13T23:26:30;19.00;88.50
19180;DHT22;9722;48.754;8.868;2022-09-13T23:29:52;19.00;89.50
19180;DHT22;9722;48.754;8.868;2022-09-13T23:33:13;19.00;89.50
19180;DHT22;9722;48.754;8.868;2022-09-13T23:36:36;18.90;89.30
19180;DHT22;9722;48.754;8.868;2022-09-13T23:39:57;18.90;89.00
19180;DHT22;9722;48.754;8.868;2022-09-13T23:43:20;18.90;89.10
19180;DHT22;9722;48.754;8.868;2022-09-13T23:46:41;18.90;89.50